Flight Track Log - Related Links

Times and Time Zones

All times are in EDT time to prevent confusion due to time zone crossing. See the SAS4587 flight status page for this flight to view local times or setup timezone preferences in your user account.

Time Position Orientation Groundspeed Altitude Reporting Facility
EDT Latitude Longitude Course Direction KTS MPH feet Rate Location/Type
Fri 01:36:11 PM 69.6800 19.6230 North  Level FlightAware ADS-B
Fri 01:37:31 PM 69.6800 19.6110 270° West 126 Level FlightAware ADS-B
Fri 01:42:11 PM 69.6810 18.9170 269° West 133 153 160 Level FlightAware ADS-B
Fri 01:42:31 PM 69.6700 18.9110 191° South 124 143 800 2,000 Climbing FlightAware ADS-B
Fri 01:42:56 PM 69.6550 18.9020 192° South 149 171 1,500 1,950 Climbing FlightAware ADS-B
Fri 01:43:11 PM 69.6430 18.8940 193° South 173 199 2,100 3,150 Climbing FlightAware ADS-B
Fri 01:43:36 PM 69.6230 18.8790 195° South 181 208 3,600 3,391 Climbing FlightAware ADS-B
Fri 01:43:57 PM 69.6070 18.8680 193° South 193 222 4,700 3,300 Climbing FlightAware ADS-B
Fri 01:44:16 PM 69.5890 18.8540 195° South 202 232 5,800 3,310 Climbing FlightAware ADS-B
Fri 01:44:26 PM 69.5810 18.8410 210° Southwest 206 237 6,300 2,800 Climbing FlightAware ADS-B
Fri 01:44:31 PM 69.5770 18.8310 221° Southwest 215 247 6,500 1,680 Climbing FlightAware ADS-B
Fri 01:44:51 PM 69.5610 18.7900 222° Southwest 254 292 7,000 2,400 Climbing FlightAware ADS-B
Fri 01:45:11 PM 69.5430 18.7450 221° Southwest 264 304 8,100 3,333 Climbing FlightAware ADS-B
Fri 01:45:36 PM 69.5190 18.6870 220° Southwest 279 321 9,500 2,862 Climbing FlightAware ADS-B
Fri 01:46:16 PM 69.4780 18.5870 221° Southwest 313 360 11,200 2,842 Climbing FlightAware ADS-B
Fri 01:46:52 PM 69.4380 18.4900 220° Southwest 329 379 13,100 3,171 Climbing FlightAware ADS-B
Fri 01:47:26 PM 69.3960 18.3910 220° Southwest 339 390 14,900 3,130 Climbing FlightAware ADS-B
Fri 01:48:01 PM 69.3550 18.2910 221° Southwest 346 398 16,700 3,086 Climbing FlightAware ADS-B
Fri 01:48:36 PM 69.3110 18.1860 220° Southwest 356 410 18,500 3,000 Climbing FlightAware ADS-B
Fri 01:49:11 PM 69.2660 18.0800 220° Southwest 373 429 20,200 3,000 Climbing FlightAware ADS-B
Fri 01:49:46 PM 69.2190 17.9700 220° Southwest 385 443 22,000 3,400 Climbing FlightAware ADS-B
Fri 01:50:11 PM 69.1870 17.8950 220° Southwest 381 438 23,600 3,343 Climbing FlightAware ADS-B
Fri 01:50:56 PM 69.1260 17.7520 220° Southwest 361 415 25,900 1,800 Climbing FlightAware ADS-B
Fri 01:51:31 PM 69.0820 17.6500 220° Southwest 358 412 26,000 86 Climbing FlightAware ADS-B
Fri 01:52:06 PM 69.0350 17.5440 219° Southwest 359 413 26,000  Level FlightAware ADS-B
Fri 01:52:41 PM 68.9890 17.4390 219° Southwest 361 415 26,000  Level FlightAware ADS-B
Fri 01:53:16 PM 68.9430 17.3330 220° Southwest 362 417 26,000  Level FlightAware ADS-B
Fri 01:53:51 PM 68.8970 17.2290 219° Southwest 369 425 26,000  Level FlightAware ADS-B
Fri 01:54:26 PM 68.8510 17.1250 219° Southwest 362 417 26,000  Level FlightAware ADS-B
Fri 01:55:01 PM 68.8060 17.0240 219° Southwest 362 417 26,000  Level FlightAware ADS-B
Fri 01:55:36 PM 68.7580 16.9190 218° Southwest 368 423 26,000  Level FlightAware ADS-B
Fri 01:56:11 PM 68.7170 16.8270 219° Southwest 370 426 26,000  Level FlightAware ADS-B
Fri 01:56:46 PM 68.6670 16.7170 219° Southwest 371 427 26,000  Level FlightAware ADS-B
Fri 01:57:22 PM 68.6190 16.6110 219° Southwest 370 426 26,000  Level FlightAware ADS-B
Fri 01:57:56 PM 68.5740 16.5130 219° Southwest 366 421 26,000  Level FlightAware ADS-B
Fri 01:58:31 PM 68.5270 16.4120 218° Southwest 366 421 26,000  Level FlightAware ADS-B
Fri 01:59:06 PM 68.4800 16.3120 218° Southwest 368 423 26,000  Level FlightAware ADS-B
Fri 01:59:52 PM 68.4240 16.1910 218° Southwest 371 427 26,000  Level FlightAware ADS-B
Fri 02:00:21 PM 68.3790 16.0950 218° Southwest 369 425 26,000  Level FlightAware ADS-B
Fri 02:00:56 PM 68.3330 15.9980 218° Southwest 369 425 26,000  Level FlightAware ADS-B
Fri 02:01:52 PM 68.2620 15.8490 218° Southwest 369 425 26,000 -1,484 Level FlightAware ADS-B
Fri 02:02:29 PM 68.2060 15.7320 218° Southwest 376 433 23,700 -2,750 Descending FlightAware ADS-B
Fri 02:03:04 PM 68.1630 15.6430 218° Southwest 369 425 22,700 -1,800 Descending FlightAware ADS-B
Fri 02:03:39 PM 68.1110 15.5360 218° Southwest 367 422 21,600 -1,886 Descending FlightAware ADS-B
Fri 02:04:14 PM 68.0640 15.4380 218° Southwest 362 417 20,500 -1,886 Descending FlightAware ADS-B
Fri 02:04:49 PM 68.0180 15.3430 218° Southwest 351 404 19,400 -1,714 Descending FlightAware ADS-B
Fri 02:05:24 PM 67.9730 15.2530 217° Southwest 344 396 18,500 -1,543 Descending FlightAware ADS-B
Fri 02:05:59 PM 67.9290 15.1630 218° Southwest 339 390 17,600 -1,437 Descending FlightAware ADS-B
Fri 02:06:35 PM 67.8850 15.0790 216° Southwest 326 375 16,800 -1,886 Descending FlightAware ADS-B
Fri 02:07:09 PM 67.8380 15.0050 211° Southwest 339 390 15,400 -3,391 Descending FlightAware ADS-B
Fri 02:07:44 PM 67.7890 14.9260 211° Southwest 372 428 12,900 -2,602 Descending FlightAware ADS-B
Fri 02:08:32 PM 67.7200 14.8480 203° Southwest 380 437 11,800 -702 Descending FlightAware ADS-B
Fri 02:09:18 PM 67.6560 14.7810 202° Southwest 380 437 11,800  Level FlightAware ADS-B
Fri 02:09:55 PM 67.6050 14.7260 202° Southwest 380 437 11,800 -2,222 Level FlightAware ADS-B
Fri 02:12:00 PM 67.4227 14.5289 203° Southwest  Level Estimated
Fri 02:12:27 PM 67.4210 14.4900 203° Southwest 254 292 4,800  Level FlightAware ADS-B
Fri 02:13:02 PM 67.3880 14.4310 215° Southwest 240 276 4,000 -1,320 Descending FlightAware ADS-B
Fri 02:13:17 PM 67.3750 14.4070 215° Southwest 227 261 3,700 -1,317 Descending FlightAware ADS-B
Fri 02:13:43 PM 67.3540 14.3630 219° Southwest 223 257 3,100 -1,200 Descending FlightAware ADS-B
Fri 02:14:02 PM 67.3400 14.3260 226° Southwest 217 250 2,800 -353 Descending FlightAware ADS-B
Fri 02:14:17 PM 67.3310 14.2970 231° Southwest 193 222 2,900 240 Climbing FlightAware ADS-B
Fri 02:14:27 PM 67.3270 14.2770 243° Southwest 176 203 2,900 -231 Level FlightAware ADS-B
Fri 02:14:43 PM 67.3230 14.2570 243° Southwest 167 192 2,800 -968 Descending FlightAware ADS-B
Fri 02:14:58 PM 67.3180 14.2240 249° West 165 190 2,400 -1,235 Descending FlightAware ADS-B
Fri 02:15:17 PM 67.3080 14.2020 220° Southwest 149 171 2,100 -955 Descending FlightAware ADS-B
Fri 02:15:42 PM 67.2920 14.1900 196° South 131 151 1,700 -1,059 Descending FlightAware ADS-B
Fri 02:16:08 PM 67.2740 14.1970 171° South 126 145 1,200 -1,200 Descending FlightAware ADS-B
Fri 02:16:17 PM 67.2690 14.2030 155° Southeast 129 148 1,000 -1,286 Descending FlightAware ADS-B
Fri 02:16:22 PM 67.2670 14.2080 136° Southeast 126 145 900 -1,200 Descending FlightAware ADS-B
Fri 02:16:27 PM 67.2650 14.2130 136° Southeast 125 144 800 -1,200 Descending FlightAware ADS-B
Fri 02:16:37 PM 67.2620 14.2260 121° Southeast 119 137 600 -800 Descending FlightAware ADS-B
Fri 02:16:42 PM 67.2610 14.2340 108° East 120 138 600 -600 Level FlightAware ADS-B
Fri 02:16:47 PM 67.2610 14.2400 90° East 121 139 500 -667 Descending FlightAware ADS-B
Fri 02:17:27 PM 67.2640 14.2980 82° East 121 139 100 -600 Descending FlightAware ADS-B
Fri 02:17:47 PM 67.2660 14.3250 79° East 118 136 -300 Descending FlightAware ADS-B
Fri 02:18:07 PM 67.2680 14.3520 79° East 96 110  Level FlightAware ADS-B

Login

Don't have an account? Register now (free) for customized features, flight alerts, and more!